createdAt,value
2017-10-16T00:00:50.533Z,0
2017-10-16T00:01:59.570Z,0
2017-10-16T00:03:09.263Z,0
2017-10-16T00:04:18.293Z,0
2017-10-16T00:05:27.322Z,0
2017-10-16T00:06:36.352Z,0
2017-10-16T00:07:45.381Z,0
2017-10-16T00:08:54.077Z,0
2017-10-16T00:10:03.772Z,0
2017-10-16T00:11:12.805Z,0
2017-10-16T00:12:21.501Z,0
2017-10-16T00:13:30.533Z,0
2017-10-16T00:14:39.897Z,0
2017-10-16T00:15:49.259Z,0
2017-10-16T00:16:58.284Z,0
2017-10-16T00:18:06.980Z,0
2017-10-16T00:19:16.346Z,0
2017-10-16T00:20:25.374Z,0
2017-10-16T00:21:34.404Z,0
2017-10-16T00:22:43.101Z,0
2017-10-16T00:23:52.479Z,0
2017-10-16T00:25:01.846Z,0
2017-10-16T00:26:11.560Z,0
2017-10-16T00:27:20.595Z,0
2017-10-16T00:28:29.296Z,0
2017-10-16T00:29:38.326Z,0
2017-10-16T00:30:47.692Z,0
2017-10-16T00:31:57.056Z,0
2017-10-16T00:33:05.753Z,0
2017-10-16T00:34:15.113Z,0
2017-10-16T00:35:24.136Z,0
2017-10-16T00:36:33.498Z,0
2017-10-16T00:37:43.191Z,0
2017-10-16T00:38:52.908Z,0
2017-10-16T00:40:01.939Z,0
2017-10-16T00:41:10.973Z,0
2017-10-16T00:42:19.673Z,0
2017-10-16T00:43:29.039Z,0
2017-10-16T00:44:38.065Z,0
2017-10-16T00:45:48.098Z,0
2017-10-16T00:46:57.480Z,0
2017-10-16T00:48:06.842Z,0
2017-10-16T00:49:15.870Z,0
2017-10-16T00:50:25.230Z,0
2017-10-16T00:51:34.261Z,0
2017-10-16T00:52:43.290Z,0
2017-10-16T00:53:52.326Z,0
2017-10-16T00:55:01.357Z,0
2017-10-16T00:56:11.050Z,0
2017-10-16T00:57:19.750Z,0
2017-10-16T00:58:28.452Z,0
2017-10-16T00:59:37.483Z,0
2017-10-16T01:00:46.849Z,0
2017-10-16T01:01:55.878Z,0
2017-10-16T01:03:05.243Z,0
2017-10-16T01:04:14.940Z,0
2017-10-16T01:05:23.639Z,0
2017-10-16T01:06:33.333Z,0
2017-10-16T01:07:42.358Z,0
2017-10-16T01:08:51.722Z,0
2017-10-16T01:10:01.083Z,0
2017-10-16T01:11:09.782Z,0
2017-10-16T01:12:18.819Z,0
2017-10-16T01:13:27.515Z,0
2017-10-16T01:14:37.210Z,0
2017-10-16T01:15:46.241Z,0
2017-10-16T01:16:56.279Z,0
2017-10-16T01:18:04.977Z,0
2017-10-16T01:19:14.685Z,0
2017-10-16T01:20:24.046Z,0
2017-10-16T01:21:32.743Z,0
2017-10-16T01:22:41.465Z,0
2017-10-16T01:23:50.837Z,0
2017-10-16T01:24:59.870Z,0
2017-10-16T01:26:08.902Z,0
2017-10-16T01:27:17.601Z,0
2017-10-16T01:28:26.961Z,0
2017-10-16T01:29:36.323Z,0
2017-10-16T01:30:45.024Z,0
2017-10-16T01:31:54.394Z,0
2017-10-16T01:33:03.420Z,0
2017-10-16T01:34:12.120Z,0
2017-10-16T01:35:21.810Z,0
2017-10-16T01:36:31.173Z,0
2017-10-16T01:37:39.871Z,0
2017-10-16T01:38:48.906Z,0
2017-10-16T01:39:58.272Z,0
2017-10-16T01:41:07.308Z,0
2017-10-16T01:42:17.002Z,0
2017-10-16T01:43:26.034Z,0
2017-10-16T01:44:35.065Z,0
2017-10-16T01:45:44.097Z,0
2017-10-16T01:46:53.475Z,0
2017-10-16T01:48:02.172Z,0
2017-10-16T01:49:11.868Z,0
2017-10-16T01:50:20.903Z,0
2017-10-16T01:51:29.936Z,0
2017-10-16T01:52:39.641Z,0
2017-10-16T01:53:48.339Z,0
2017-10-16T01:54:57.370Z,0
2017-10-16T01:56:06.398Z,0
2017-10-16T01:57:15.760Z,0
2017-10-16T01:58:25.121Z,0
2017-10-16T01:59:34.815Z,0
2017-10-16T02:00:44.185Z,0
2017-10-16T02:01:53.217Z,0
2017-10-16T02:03:01.912Z,0
2017-10-16T02:04:10.609Z,0
2017-10-16T02:05:19.311Z,0
2017-10-16T02:06:28.669Z,0
2017-10-16T02:07:38.362Z,0
2017-10-16T02:08:47.387Z,0
2017-10-16T02:09:56.098Z,0
2017-10-16T02:11:05.143Z,0
2017-10-16T02:12:14.841Z,0
2017-10-16T02:13:23.538Z,0
2017-10-16T02:14:32.896Z,0
2017-10-16T02:15:41.926Z,0
2017-10-16T02:16:51.285Z,0
2017-10-16T02:18:00.981Z,0
2017-10-16T02:19:09.678Z,0
2017-10-16T02:20:19.039Z,0
2017-10-16T02:21:28.401Z,0
2017-10-16T02:22:37.112Z,0
2017-10-16T02:23:46.795Z,0
2017-10-16T02:24:55.492Z,0
2017-10-16T02:26:04.524Z,0
2017-10-16T02:27:13.555Z,0
2017-10-16T02:28:22.916Z,0
2017-10-16T02:29:31.951Z,0
2017-10-16T02:30:40.983Z,0
2017-10-16T02:31:49.681Z,0
2017-10-16T02:32:58.712Z,0
2017-10-16T02:34:07.747Z,0
2017-10-16T02:35:16.445Z,0
2017-10-16T02:36:25.134Z,0
2017-10-16T02:37:34.827Z,0
2017-10-16T02:38:43.858Z,0
2017-10-16T02:39:52.888Z,0
2017-10-16T02:41:02.250Z,0
2017-10-16T02:42:11.947Z,0
2017-10-16T02:43:21.647Z,0
2017-10-16T02:44:31.345Z,0
2017-10-16T02:45:41.045Z,0
2017-10-16T02:46:49.746Z,0
2017-10-16T02:47:59.106Z,0
2017-10-16T02:49:08.145Z,0
2017-10-16T02:50:17.171Z,0
2017-10-16T02:51:26.533Z,0
2017-10-16T02:52:35.901Z,0
2017-10-16T02:53:44.941Z,0
2017-10-16T02:54:53.644Z,0
2017-10-16T02:56:03.013Z,0
2017-10-16T02:57:12.377Z,0
2017-10-16T02:58:21.407Z,0
2017-10-16T02:59:31.134Z,0
2017-10-16T03:00:40.509Z,0
2017-10-16T03:01:50.209Z,0
2017-10-16T03:02:59.240Z,0
2017-10-16T03:04:09.260Z,0
2017-10-16T03:05:18.623Z,0
2017-10-16T03:06:27.315Z,0
2017-10-16T03:07:36.347Z,0
2017-10-16T03:08:45.713Z,0
2017-10-16T03:09:54.414Z,0
2017-10-16T03:11:03.111Z,0
2017-10-16T03:12:12.472Z,0
2017-10-16T03:13:21.511Z,0
2017-10-16T03:14:31.203Z,0
2017-10-16T03:15:40.232Z,0
2017-10-16T03:16:49.260Z,0
2017-10-16T03:17:58.626Z,0
2017-10-16T03:19:07.984Z,0
2017-10-16T03:20:17.348Z,0
2017-10-16T03:21:26.052Z,0
2017-10-16T03:22:35.085Z,0
2017-10-16T03:23:45.112Z,0
2017-10-16T03:24:53.821Z,0
2017-10-16T03:26:03.184Z,0
2017-10-16T03:27:12.553Z,0
2017-10-16T03:28:21.586Z,0
2017-10-16T03:29:30.614Z,0
2017-10-16T03:30:39.650Z,0
2017-10-16T03:31:49.342Z,0
2017-10-16T03:32:58.040Z,0
2017-10-16T03:34:07.074Z,0
2017-10-16T03:35:16.100Z,0
2017-10-16T03:36:24.795Z,0
2017-10-16T03:37:33.825Z,0
2017-10-16T03:38:42.859Z,0
2017-10-16T03:39:51.886Z,0
2017-10-16T03:41:01.267Z,0
2017-10-16T03:42:10.639Z,0
2017-10-16T03:43:20.001Z,0
2017-10-16T03:44:28.695Z,0
2017-10-16T03:45:37.400Z,0
2017-10-16T03:46:46.755Z,0
2017-10-16T03:47:56.453Z,0
2017-10-16T03:49:05.486Z,0
2017-10-16T03:50:14.516Z,0
2017-10-16T03:51:23.874Z,0
2017-10-16T03:52:33.237Z,0
2017-10-16T03:53:42.602Z,0
2017-10-16T03:54:51.963Z,0
2017-10-16T03:56:01.997Z,0
2017-10-16T03:57:11.031Z,0
2017-10-16T03:58:20.058Z,0
2017-10-16T03:59:28.757Z,0
2017-10-16T04:00:37.792Z,0
2017-10-16T04:01:46.828Z,0
2017-10-16T04:02:55.856Z,0
2017-10-16T04:04:04.885Z,0
2017-10-16T04:05:13.579Z,0
2017-10-16T04:06:22.604Z,0
2017-10-16T04:07:31.976Z,0
2017-10-16T04:08:41.338Z,0
2017-10-16T04:09:50.696Z,0
2017-10-16T04:10:59.726Z,0
2017-10-16T04:12:09.093Z,0
2017-10-16T04:13:18.125Z,0
2017-10-16T04:14:28.162Z,0
2017-10-16T04:15:38.192Z,0
2017-10-16T04:16:47.552Z,0
2017-10-16T04:17:56.919Z,0
2017-10-16T04:19:06.279Z,0
2017-10-16T04:20:14.978Z,0
2017-10-16T04:21:24.341Z,0
2017-10-16T04:22:34.040Z,0
2017-10-16T04:23:43.071Z,0
2017-10-16T04:24:52.094Z,0
2017-10-16T04:26:01.125Z,0
2017-10-16T04:27:10.156Z,0
2017-10-16T04:28:19.524Z,0
2017-10-16T04:29:29.226Z,0
2017-10-16T04:30:38.922Z,0
2017-10-16T04:31:47.956Z,0
2017-10-16T04:32:57.316Z,0
2017-10-16T04:34:07.013Z,0
2017-10-16T04:35:16.043Z,0
2017-10-16T04:36:25.731Z,0
2017-10-16T04:37:34.763Z,0
2017-10-16T04:38:44.125Z,0
2017-10-16T04:39:53.164Z,0
2017-10-16T04:41:02.855Z,0
2017-10-16T04:42:11.884Z,0
2017-10-16T04:43:21.245Z,0
2017-10-16T04:44:30.277Z,0
2017-10-16T04:45:38.976Z,0
2017-10-16T04:46:47.680Z,0
2017-10-16T04:47:56.707Z,0
2017-10-16T04:49:06.744Z,0
2017-10-16T04:50:15.446Z,0
2017-10-16T04:51:24.144Z,0
2017-10-16T04:52:33.515Z,0
2017-10-16T04:53:43.208Z,0
2017-10-16T04:54:51.908Z,0
2017-10-16T04:56:00.607Z,0
2017-10-16T04:57:09.637Z,0
2017-10-16T04:58:18.674Z,0
2017-10-16T04:59:28.036Z,0
2017-10-16T05:00:37.066Z,0
2017-10-16T05:01:46.431Z,0
2017-10-16T05:02:55.460Z,0
2017-10-16T05:04:05.146Z,0
2017-10-16T05:05:14.178Z,0
2017-10-16T05:06:23.535Z,0
2017-10-16T05:07:32.896Z,0
2017-10-16T05:08:41.925Z,0
2017-10-16T05:09:51.289Z,0
2017-10-16T05:10:59.985Z,0
2017-10-16T05:12:08.688Z,0
2017-10-16T05:13:18.388Z,0
2017-10-16T05:14:28.421Z,0
2017-10-16T05:15:38.109Z,0
2017-10-16T05:16:47.141Z,0
2017-10-16T05:17:56.174Z,0
2017-10-16T05:19:05.207Z,0
2017-10-16T05:20:13.904Z,0
2017-10-16T05:21:22.934Z,0
2017-10-16T05:22:31.630Z,0
2017-10-16T05:23:40.327Z,0
2017-10-16T05:24:50.019Z,0
2017-10-16T05:25:58.730Z,0
2017-10-16T05:27:08.116Z,0
2017-10-16T05:28:17.145Z,0
2017-10-16T05:29:26.506Z,0
2017-10-16T05:30:36.202Z,0
2017-10-16T05:31:45.246Z,0
2017-10-16T05:32:54.274Z,0
2017-10-16T05:34:02.973Z,0
2017-10-16T05:35:12.338Z,4
2017-10-16T05:36:21.373Z,0
2017-10-16T05:37:30.731Z,0
2017-10-16T05:38:40.102Z,0
2017-10-16T05:39:50.138Z,4
2017-10-16T05:40:58.835Z,4
2017-10-16T05:42:07.865Z,4
2017-10-16T05:43:17.891Z,4
2017-10-16T05:44:26.923Z,4
2017-10-16T05:45:35.951Z,4
2017-10-16T05:46:44.977Z,4
2017-10-16T05:47:54.004Z,8
2017-10-16T05:49:03.700Z,4
2017-10-16T05:50:13.063Z,8
2017-10-16T05:51:22.752Z,8
2017-10-16T05:52:31.785Z,8
2017-10-16T05:53:40.480Z,8
2017-10-16T05:54:49.181Z,12
2017-10-16T05:55:58.213Z,16
2017-10-16T05:57:06.910Z,16
2017-10-16T05:58:15.610Z,16
2017-10-16T05:59:24.640Z,20
2017-10-16T06:00:34.690Z,24
2017-10-16T06:01:44.057Z,24
2017-10-16T06:02:53.757Z,24
2017-10-16T06:04:02.788Z,32
2017-10-16T06:05:12.495Z,32
2017-10-16T06:06:21.524Z,32
2017-10-16T06:07:30.904Z,36
2017-10-16T06:08:39.936Z,40
2017-10-16T06:09:48.967Z,40
2017-10-16T06:10:58.004Z,44
2017-10-16T06:12:06.702Z,52
2017-10-16T06:13:15.728Z,52
2017-10-16T06:14:25.087Z,56
2017-10-16T06:15:34.786Z,60
2017-10-16T06:16:43.818Z,64
2017-10-16T06:17:52.848Z,68
2017-10-16T06:19:01.878Z,72
2017-10-16T06:20:11.571Z,76
2017-10-16T06:21:20.604Z,84
2017-10-16T06:22:30.299Z,92
2017-10-16T06:23:39.325Z,100
2017-10-16T06:24:48.352Z,104
2017-10-16T06:25:57.714Z,116
2017-10-16T06:27:06.415Z,120
2017-10-16T06:28:15.802Z,124
2017-10-16T06:29:24.841Z,136
2017-10-16T06:30:33.537Z,140
2017-10-16T06:31:42.236Z,148
2017-10-16T06:32:51.607Z,152
2017-10-16T06:34:01.347Z,156
2017-10-16T06:35:10.041Z,160
2017-10-16T06:36:19.075Z,168
2017-10-16T06:37:28.447Z,176
2017-10-16T06:38:37.480Z,180
2017-10-16T06:39:46.507Z,188
2017-10-16T06:40:55.204Z,192
2017-10-16T06:42:04.565Z,196
2017-10-16T06:43:13.263Z,200
2017-10-16T06:44:21.960Z,208
2017-10-16T06:45:31.658Z,224
2017-10-16T06:46:40.361Z,236
2017-10-16T06:47:49.727Z,244
2017-10-16T06:48:59.416Z,252
2017-10-16T06:50:09.108Z,264
2017-10-16T06:51:18.138Z,276
2017-10-16T06:52:27.504Z,292
2017-10-16T06:53:36.199Z,296
2017-10-16T06:54:45.557Z,296
2017-10-16T06:55:54.593Z,296
2017-10-16T06:57:04.299Z,312
2017-10-16T06:58:13.662Z,344
2017-10-16T06:59:22.689Z,332
2017-10-16T07:00:32.050Z,336
2017-10-16T07:01:41.081Z,348
2017-10-16T07:02:50.116Z,360
2017-10-16T07:03:59.482Z,396
2017-10-16T07:05:08.845Z,436
2017-10-16T07:06:17.882Z,484
2017-10-16T07:07:27.577Z,524
2017-10-16T07:08:36.615Z,540
2017-10-16T07:09:45.647Z,544
2017-10-16T07:10:55.015Z,688
2017-10-16T07:12:04.087Z,676
2017-10-16T07:13:13.456Z,844
2017-10-16T07:14:22.156Z,1004
2017-10-16T07:15:31.202Z,700
2017-10-16T07:16:39.902Z,336
2017-10-16T07:17:49.263Z,280
2017-10-16T07:18:58.956Z,260
2017-10-16T07:20:08.655Z,268
2017-10-16T07:21:17.684Z,296
2017-10-16T07:22:26.713Z,304
2017-10-16T07:23:35.744Z,316
2017-10-16T07:24:45.109Z,336
2017-10-16T07:25:54.135Z,404
2017-10-16T07:27:03.163Z,404
2017-10-16T07:28:12.199Z,532
2017-10-16T07:29:21.237Z,664
2017-10-16T07:30:30.266Z,944
2017-10-16T07:31:39.300Z,1852
2017-10-16T07:32:48.667Z,2792
2017-10-16T07:33:58.034Z,2132
2017-10-16T07:35:06.735Z,1520
2017-10-16T07:36:16.093Z,1620
2017-10-16T07:37:25.122Z,3896
2017-10-16T07:38:34.151Z,4596
2017-10-16T07:39:42.851Z,6108
2017-10-16T07:40:52.545Z,6240
2017-10-16T07:42:01.905Z,5828
2017-10-16T07:43:10.939Z,5460
2017-10-16T07:44:20.297Z,3016
2017-10-16T07:45:28.999Z,2004
2017-10-16T07:46:38.045Z,1940
2017-10-16T07:47:46.744Z,1900
2017-10-16T07:48:56.115Z,1784
2017-10-16T07:50:05.488Z,1708
2017-10-16T07:51:14.855Z,1664
2017-10-16T07:52:24.240Z,1640
2017-10-16T07:53:33.600Z,1616
2017-10-16T07:54:42.632Z,1608
2017-10-16T07:55:51.661Z,1596
2017-10-16T07:57:01.025Z,1576
2017-10-16T07:58:09.717Z,1580
2017-10-16T07:59:18.420Z,1584
2017-10-16T08:00:27.781Z,1576
2017-10-16T08:01:36.479Z,1588
2017-10-16T08:02:45.848Z,1584
2017-10-16T08:03:55.894Z,1576
2017-10-16T08:05:05.248Z,1572
2017-10-16T08:06:14.285Z,1564
2017-10-16T08:07:22.985Z,1568
2017-10-16T08:08:32.024Z,1560
2017-10-16T08:09:41.052Z,1548
2017-10-16T08:10:50.420Z,1544
2017-10-16T08:11:59.791Z,1552
2017-10-16T08:13:09.159Z,1556
2017-10-16T08:14:18.521Z,1552
2017-10-16T08:15:27.224Z,1556
2017-10-16T08:16:36.255Z,1556
2017-10-16T08:17:45.620Z,1552
2017-10-16T08:18:55.315Z,1556
2017-10-16T08:20:04.682Z,1556
2017-10-16T08:21:14.048Z,1548
2017-10-16T08:22:22.753Z,1548
2017-10-16T08:23:31.874Z,1544
2017-10-16T08:24:40.571Z,1544
2017-10-16T08:25:49.612Z,1544
2017-10-16T08:26:58.646Z,1540
2017-10-16T08:28:07.679Z,1540
2017-10-16T08:29:17.039Z,1532
2017-10-16T08:30:25.743Z,1524
2017-10-16T08:31:34.773Z,1532
2017-10-16T08:32:44.469Z,1532
2017-10-16T08:33:53.178Z,1540
2017-10-16T08:35:02.210Z,1532
2017-10-16T08:36:11.910Z,1516
2017-10-16T08:37:21.607Z,1532
2017-10-16T08:38:30.639Z,1544
2017-10-16T08:39:39.996Z,1560
2017-10-16T08:40:49.025Z,1580
2017-10-16T08:41:57.720Z,1584
2017-10-16T08:43:07.084Z,1592
2017-10-16T08:44:16.113Z,1596
2017-10-16T08:45:25.472Z,1604
2017-10-16T08:46:35.172Z,1604
2017-10-16T08:47:44.207Z,1612
2017-10-16T08:48:54.234Z,1608
2017-10-16T08:50:02.934Z,1604
2017-10-16T08:51:11.970Z,1596
2017-10-16T08:52:21.336Z,1596
2017-10-16T08:53:30.036Z,1596
2017-10-16T08:54:38.733Z,1612
2017-10-16T08:55:47.439Z,1632
2017-10-16T08:56:56.807Z,1656
2017-10-16T08:58:05.505Z,1668
2017-10-16T08:59:14.869Z,1676
2017-10-16T09:00:24.233Z,1692
2017-10-16T09:01:33.263Z,1720
2017-10-16T09:02:41.965Z,1752
2017-10-16T09:03:50.997Z,1816
2017-10-16T09:05:00.033Z,1888
2017-10-16T09:06:08.736Z,1972
2017-10-16T09:07:17.439Z,2028
2017-10-16T09:08:27.143Z,2100
2017-10-16T09:09:36.849Z,2176
2017-10-16T09:10:45.881Z,2232
2017-10-16T09:11:54.908Z,2300
2017-10-16T09:13:03.949Z,2372
2017-10-16T09:14:13.316Z,2468
2017-10-16T09:15:22.019Z,2492
2017-10-16T09:16:30.721Z,2528
2017-10-16T09:17:39.753Z,2560
2017-10-16T09:18:49.113Z,2612
2017-10-16T09:19:58.151Z,2644
2017-10-16T09:21:07.864Z,2704
2017-10-16T09:22:17.568Z,2756
2017-10-16T09:23:27.270Z,2808
2017-10-16T09:24:36.315Z,2852
2017-10-16T09:25:46.010Z,2892
2017-10-16T09:26:55.383Z,2940
2017-10-16T09:28:04.413Z,2988
2017-10-16T09:29:13.443Z,3064
2017-10-16T09:30:22.810Z,3116
2017-10-16T09:31:32.551Z,3212
2017-10-16T09:32:41.953Z,3316
2017-10-16T09:33:50.655Z,3328
2017-10-16T09:35:00.019Z,3472
2017-10-16T09:36:08.717Z,3608
2017-10-16T09:37:17.745Z,3592
2017-10-16T09:38:27.115Z,3588
2017-10-16T09:39:36.817Z,3728
2017-10-16T09:40:46.507Z,3844
2017-10-16T09:41:55.231Z,3988
2017-10-16T09:43:03.906Z,4264
2017-10-16T09:44:12.939Z,4476
2017-10-16T09:45:22.632Z,4620
2017-10-16T09:46:31.335Z,4620
2017-10-16T09:47:40.716Z,4488
2017-10-16T09:48:50.082Z,4336
2017-10-16T09:49:59.790Z,4328
2017-10-16T09:51:09.523Z,3844
2017-10-16T09:52:18.218Z,4500
2017-10-16T09:53:27.255Z,4516
2017-10-16T09:54:36.623Z,4520
2017-10-16T09:55:45.688Z,4604
2017-10-16T09:56:54.697Z,4828
2017-10-16T09:58:03.399Z,4860
2017-10-16T09:59:12.429Z,4836
2017-10-16T10:00:21.803Z,4748
2017-10-16T10:01:31.203Z,4748
2017-10-16T10:02:40.239Z,4716
2017-10-16T10:03:49.275Z,4792
2017-10-16T10:04:57.977Z,4816
2017-10-16T10:06:07.010Z,4784
2017-10-16T10:07:16.051Z,4904
2017-10-16T10:08:25.081Z,3576
2017-10-16T10:09:34.455Z,4392
2017-10-16T10:10:43.819Z,5148
2017-10-16T10:11:53.522Z,3096
2017-10-16T10:13:02.224Z,1928
2017-10-16T10:14:11.593Z,2016
2017-10-16T10:15:20.964Z,1624
2017-10-16T10:16:30.008Z,1036
2017-10-16T10:17:39.373Z,1240
2017-10-16T10:18:48.749Z,4408
2017-10-16T10:19:57.449Z,4632
2017-10-16T10:21:06.485Z,4832
2017-10-16T10:22:15.856Z,4720
2017-10-16T10:23:24.563Z,4732
2017-10-16T10:24:33.935Z,4932
2017-10-16T10:25:42.971Z,5020
2017-10-16T10:26:52.004Z,3732
2017-10-16T10:28:01.034Z,2380
2017-10-16T10:29:10.410Z,1540
2017-10-16T10:30:20.108Z,1192
2017-10-16T10:31:28.812Z,1740
2017-10-16T10:32:37.848Z,2684
2017-10-16T10:33:47.563Z,5436
2017-10-16T10:34:57.280Z,1460
2017-10-16T10:36:05.980Z,1712
2017-10-16T10:37:15.014Z,2068
2017-10-16T10:38:24.711Z,1668
2017-10-16T10:39:33.412Z,1032
2017-10-16T10:40:42.782Z,940
2017-10-16T10:41:52.149Z,948
2017-10-16T10:43:01.185Z,1104
2017-10-16T10:44:10.558Z,940
2017-10-16T10:45:19.929Z,880
2017-10-16T10:46:28.960Z,828
2017-10-16T10:47:37.992Z,728
2017-10-16T10:48:47.360Z,672
2017-10-16T10:49:56.396Z,648
2017-10-16T10:51:05.430Z,644
2017-10-16T10:52:14.473Z,640
2017-10-16T10:53:23.509Z,640
2017-10-16T10:54:32.541Z,668
2017-10-16T10:55:41.573Z,860
2017-10-16T10:56:50.608Z,716
2017-10-16T10:57:59.634Z,692
2017-10-16T10:59:08.679Z,708
2017-10-16T11:00:18.041Z,708
2017-10-16T11:01:27.735Z,704
2017-10-16T11:02:37.094Z,700
2017-10-16T11:03:46.124Z,744
2017-10-16T11:04:55.162Z,748
2017-10-16T11:06:04.190Z,696
2017-10-16T11:07:13.559Z,704
2017-10-16T11:08:22.927Z,724
2017-10-16T11:09:32.298Z,804
2017-10-16T11:10:41.334Z,888
2017-10-16T11:11:50.366Z,912
2017-10-16T11:13:00.070Z,940
2017-10-16T11:14:09.769Z,1028
2017-10-16T11:15:18.804Z,1124
2017-10-16T11:16:27.841Z,956
2017-10-16T11:17:36.542Z,980
2017-10-16T11:18:45.575Z,876
2017-10-16T11:19:55.276Z,820
2017-10-16T11:21:04.642Z,764
2017-10-16T11:22:13.677Z,752
2017-10-16T11:23:22.706Z,748
2017-10-16T11:24:31.733Z,760
2017-10-16T11:25:41.432Z,764
2017-10-16T11:26:50.138Z,756
2017-10-16T11:27:59.173Z,748
2017-10-16T11:29:08.202Z,788
2017-10-16T11:30:17.568Z,808
2017-10-16T11:31:26.603Z,876
2017-10-16T11:32:35.968Z,1212
2017-10-16T11:33:45.342Z,1852
2017-10-16T11:34:55.038Z,1624
2017-10-16T11:36:04.068Z,1428
2017-10-16T11:37:13.779Z,1172
2017-10-16T11:38:22.804Z,1372
2017-10-16T11:39:32.165Z,1264
2017-10-16T11:40:41.860Z,1152
2017-10-16T11:41:51.581Z,1128
2017-10-16T11:43:00.594Z,1256
2017-10-16T11:44:10.289Z,1332
2017-10-16T11:45:19.319Z,1472
2017-10-16T11:46:28.687Z,1404
2017-10-16T11:47:37.727Z,1492
2017-10-16T11:48:46.769Z,1512
2017-10-16T11:49:55.803Z,1588
2017-10-16T11:51:04.835Z,1700
2017-10-16T11:52:13.866Z,1672
2017-10-16T11:53:23.908Z,1716
2017-10-16T11:54:33.601Z,1672
2017-10-16T11:55:42.965Z,1664
2017-10-16T11:56:52.662Z,1648
2017-10-16T11:58:01.700Z,1628
2017-10-16T11:59:10.401Z,1604
2017-10-16T12:00:19.769Z,1576
2017-10-16T12:01:29.136Z,1544
2017-10-16T12:02:38.505Z,1504
2017-10-16T12:03:47.551Z,1468
2017-10-16T12:04:56.914Z,1440
2017-10-16T12:06:05.950Z,1416
2017-10-16T12:07:15.321Z,1388
2017-10-16T12:08:24.357Z,1364
2017-10-16T12:09:33.388Z,1320
2017-10-16T12:10:42.419Z,1272
2017-10-16T12:11:52.120Z,1168
2017-10-16T12:13:01.835Z,852
2017-10-16T12:14:10.888Z,820
2017-10-16T12:15:19.929Z,772
2017-10-16T12:16:28.964Z,692
2017-10-16T12:17:37.663Z,672
2017-10-16T12:18:46.695Z,644
2017-10-16T12:19:55.729Z,576
2017-10-16T12:21:04.764Z,544
2017-10-16T12:22:13.794Z,552
2017-10-16T12:23:22.833Z,556
2017-10-16T12:24:32.202Z,552
2017-10-16T12:25:41.565Z,552
2017-10-16T12:26:50.599Z,544
2017-10-16T12:27:59.974Z,588
2017-10-16T12:29:09.008Z,608
2017-10-16T12:30:18.374Z,656
2017-10-16T12:31:27.407Z,764
2017-10-16T12:32:36.777Z,752
2017-10-16T12:33:45.817Z,700
2017-10-16T12:34:54.520Z,692
2017-10-16T12:36:03.887Z,676
2017-10-16T12:37:12.586Z,676
2017-10-16T12:38:21.618Z,700
2017-10-16T12:39:30.647Z,752
2017-10-16T12:40:40.687Z,624
2017-10-16T12:41:49.388Z,532
2017-10-16T12:42:58.424Z,476
2017-10-16T12:44:07.129Z,468
2017-10-16T12:45:16.503Z,492
2017-10-16T12:46:25.531Z,560
2017-10-16T12:47:34.605Z,540
2017-10-16T12:48:43.976Z,516
2017-10-16T12:49:53.673Z,524
2017-10-16T12:51:02.700Z,492
2017-10-16T12:52:12.082Z,488
2017-10-16T12:53:21.451Z,536
2017-10-16T12:54:30.810Z,624
2017-10-16T12:55:40.180Z,660
2017-10-16T12:56:49.216Z,676
2017-10-16T12:57:58.260Z,616
2017-10-16T12:59:07.965Z,616
2017-10-16T13:00:17.004Z,676
2017-10-16T13:01:26.378Z,684
2017-10-16T13:02:35.410Z,652
2017-10-16T13:03:45.112Z,692
2017-10-16T13:04:53.815Z,700
2017-10-16T13:06:02.853Z,648
2017-10-16T13:07:11.882Z,668
2017-10-16T13:08:21.246Z,676
2017-10-16T13:09:30.278Z,672
2017-10-16T13:10:38.983Z,672
2017-10-16T13:11:47.682Z,660
2017-10-16T13:12:56.715Z,644
2017-10-16T13:14:06.083Z,616
2017-10-16T13:15:14.791Z,476
2017-10-16T13:16:24.488Z,488
2017-10-16T13:17:33.519Z,540
2017-10-16T13:18:42.219Z,436
2017-10-16T13:19:51.599Z,368
2017-10-16T13:21:01.637Z,400
2017-10-16T13:22:10.340Z,340
2017-10-16T13:23:19.043Z,292
2017-10-16T13:24:27.741Z,268
2017-10-16T13:25:37.109Z,260
2017-10-16T13:26:45.809Z,260
2017-10-16T13:27:54.844Z,260
2017-10-16T13:29:04.553Z,260
2017-10-16T13:30:13.591Z,248
2017-10-16T13:31:22.295Z,236
2017-10-16T13:32:31.326Z,228
2017-10-16T13:33:40.025Z,224
2017-10-16T13:34:49.056Z,224
2017-10-16T13:35:58.415Z,232
2017-10-16T13:37:07.773Z,252
2017-10-16T13:38:16.807Z,264
2017-10-16T13:39:25.506Z,280
2017-10-16T13:40:34.199Z,272
2017-10-16T13:41:43.566Z,272
2017-10-16T13:42:52.930Z,280
2017-10-16T13:44:02.299Z,284
2017-10-16T13:45:11.334Z,284
2017-10-16T13:46:20.704Z,296
2017-10-16T13:47:29.737Z,300
2017-10-16T13:48:39.111Z,304
2017-10-16T13:49:48.483Z,308
2017-10-16T13:50:57.515Z,316
2017-10-16T13:52:07.212Z,308
2017-10-16T13:53:16.241Z,312
2017-10-16T13:54:24.944Z,324
2017-10-16T13:55:33.983Z,340
2017-10-16T13:56:42.687Z,348
2017-10-16T13:57:51.382Z,364
2017-10-16T13:59:00.426Z,356
2017-10-16T14:00:09.461Z,364
2017-10-16T14:01:18.826Z,384
2017-10-16T14:02:28.200Z,388
2017-10-16T14:03:37.560Z,348
2017-10-16T14:04:46.586Z,320
2017-10-16T14:05:55.627Z,332
2017-10-16T14:07:04.669Z,304
2017-10-16T14:08:13.703Z,300
2017-10-16T14:09:23.402Z,308
2017-10-16T14:10:33.101Z,344
2017-10-16T14:11:42.133Z,384
2017-10-16T14:12:50.831Z,360
2017-10-16T14:14:00.197Z,372
2017-10-16T14:15:09.223Z,364
2017-10-16T14:16:18.920Z,352
2017-10-16T14:17:28.286Z,344
2017-10-16T14:18:37.324Z,336
2017-10-16T14:19:46.683Z,328
2017-10-16T14:20:55.384Z,312
2017-10-16T14:22:04.413Z,292
2017-10-16T14:23:13.448Z,272
2017-10-16T14:24:22.478Z,256
2017-10-16T14:25:31.852Z,248
2017-10-16T14:26:40.884Z,244
2017-10-16T14:27:49.591Z,232
2017-10-16T14:28:58.288Z,228
2017-10-16T14:30:07.319Z,216
2017-10-16T14:31:16.682Z,212
2017-10-16T14:32:26.048Z,204
2017-10-16T14:33:35.746Z,200
2017-10-16T14:34:44.777Z,192
2017-10-16T14:35:53.808Z,192
2017-10-16T14:37:02.843Z,188
2017-10-16T14:38:12.213Z,184
2017-10-16T14:39:20.915Z,180
2017-10-16T14:40:29.618Z,176
2017-10-16T14:41:39.323Z,172
2017-10-16T14:42:48.356Z,168
2017-10-16T14:43:57.729Z,168
2017-10-16T14:45:06.430Z,168
2017-10-16T14:46:15.462Z,168
2017-10-16T14:47:24.160Z,164
2017-10-16T14:48:33.878Z,164
2017-10-16T14:49:42.910Z,160
2017-10-16T14:50:52.613Z,156
2017-10-16T14:52:01.313Z,152
2017-10-16T14:53:10.345Z,156
2017-10-16T14:54:19.723Z,152
2017-10-16T14:55:28.423Z,152
2017-10-16T14:56:37.789Z,144
2017-10-16T14:57:46.819Z,148
2017-10-16T14:58:55.854Z,140
2017-10-16T15:00:05.223Z,140
2017-10-16T15:01:14.597Z,140
2017-10-16T15:02:23.637Z,132
2017-10-16T15:03:32.386Z,132
2017-10-16T15:04:41.418Z,132
2017-10-16T15:05:50.455Z,128
2017-10-16T15:06:59.153Z,128
2017-10-16T15:08:08.520Z,124
2017-10-16T15:09:17.879Z,124
2017-10-16T15:10:26.913Z,124
2017-10-16T15:11:35.607Z,120
2017-10-16T15:12:44.307Z,120
2017-10-16T15:13:53.358Z,120
2017-10-16T15:15:02.396Z,116
2017-10-16T15:16:11.766Z,116
2017-10-16T15:17:21.132Z,112
2017-10-16T15:18:29.837Z,108
2017-10-16T15:19:39.546Z,108
2017-10-16T15:20:48.909Z,108
2017-10-16T15:21:58.274Z,104
2017-10-16T15:23:07.308Z,104
2017-10-16T15:24:16.340Z,100
2017-10-16T15:25:26.057Z,96
2017-10-16T15:26:35.091Z,96
2017-10-16T15:27:44.467Z,96
2017-10-16T15:28:53.172Z,92
2017-10-16T15:30:02.557Z,88
2017-10-16T15:31:11.923Z,88
2017-10-16T15:32:20.637Z,88
2017-10-16T15:33:29.336Z,84
2017-10-16T15:34:38.703Z,84
2017-10-16T15:35:47.405Z,80
2017-10-16T15:36:56.447Z,76
2017-10-16T15:38:06.148Z,76
2017-10-16T15:39:15.189Z,76
2017-10-16T15:40:24.220Z,68
2017-10-16T15:41:32.920Z,68
2017-10-16T15:42:41.629Z,68
2017-10-16T15:43:50.994Z,64
2017-10-16T15:45:00.033Z,60
2017-10-16T15:46:09.738Z,60
2017-10-16T15:47:19.437Z,56
2017-10-16T15:48:28.470Z,52
2017-10-16T15:49:37.833Z,52
2017-10-16T15:50:47.521Z,48
2017-10-16T15:51:56.218Z,44
2017-10-16T15:53:04.919Z,44
2017-10-16T15:54:14.286Z,40
2017-10-16T15:55:22.985Z,40
2017-10-16T15:56:32.680Z,36
2017-10-16T15:57:42.043Z,36
2017-10-16T15:58:50.741Z,36
2017-10-16T15:59:59.774Z,32
2017-10-16T16:01:09.135Z,36
2017-10-16T16:02:18.166Z,32
2017-10-16T16:03:27.868Z,28
2017-10-16T16:04:36.902Z,32
2017-10-16T16:05:45.937Z,32
2017-10-16T16:06:54.968Z,28
2017-10-16T16:08:03.999Z,28
2017-10-16T16:09:13.031Z,28
2017-10-16T16:10:21.734Z,28
2017-10-16T16:11:31.097Z,24